SBOSBO BHX / EGBB
Speedbird OnlineSpeedbird Online BHX / EGBB

Birmingham International Airport
19:45 12.6°C

Location Birmingham, United Kingdom
Latitude: 52.453899383499994
Longitude: -1.74802994728
Web Airport Website | Wikipedia
Altitude 100 Meter / 327 Feet
Distance 166 KM / 103 Miles
from London.
Time Zone UTC +1 hours (Europe/London)
Codes IATA: BHX
ICAO: EGBB
Runways
RunwayLength (m)Surface
153052Asphalt
333052Asphalt
Radio
TypeDescriptionFrequency
APPAPP118.05
ATISATIS136.02
GNDGND121.8
TWRTWR118.3
Live ATC
METAR EGBB 241820Z 02005KT 9999 FEW020 13/08 Q1021
TAF TAF EGBB 241654Z 2418/2518 04010KT 9999 FEW030 BECMG 2420/2423 30003KT PROB30 2503/2508 4500 BR
Weather As Of 24 Sep 2022 19:45
Description Few clouds
Wind 9 km/h from North (20°)
Cloud Cover 20%
Precipitation Rain: none, Snow: none
Sunrise 06:55
Sunset 19:02
Lounges Aspire Lounge, Main Terminal
NÂș 1 Traveller Lounge, Main Terminal
Rotations During the last 90 days there were
1 flights from KGS
1 flights to LGW


© 2017-2022 Speedbird Online